Terminal Aerodrome Forecast
Issued by NWS Grand Forks, ND

Home | Current Version | Previous Version | Text Only | Print | Product List | Glossary On
Versions: 1 2 3 4 5 6 7 8 9 10 11 12 13 14 15 16 17
000
FTUS43 KFGF 271700
TAFFAR
TAF
KFAR 271720Z 2718/2818 17004KT P6SM SKC
     FM272100 18009KT P6SM BKN120
     FM280300 15015KT 1SM -SN OVC012
     FM281000 12006KT P6SM OVC015=

USA.gov is the U.S. government's official web portal to all federal, state and local government web resources and services.